createdAt,value
2022-09-28T00:00:13.531Z,0.00
2022-09-28T00:01:13.548Z,0.00
2022-09-28T00:02:13.612Z,0.00
2022-09-28T00:03:13.629Z,0.00
2022-09-28T00:04:13.518Z,0.00
2022-09-28T00:05:13.509Z,0.00
2022-09-28T00:06:13.489Z,0.00
2022-09-28T00:07:13.488Z,0.00
2022-09-28T00:08:13.497Z,0.00
2022-09-28T00:09:13.583Z,0.00
2022-09-28T00:10:13.726Z,0.00
2022-09-28T00:11:13.517Z,0.00
2022-09-28T00:12:13.513Z,0.00
2022-09-28T00:13:13.553Z,0.00
2022-09-28T00:14:13.477Z,0.00
2022-09-28T00:15:13.491Z,0.00
2022-09-28T00:16:13.522Z,0.00
2022-09-28T00:17:13.471Z,0.00
2022-09-28T00:18:13.483Z,0.00
2022-09-28T00:19:13.605Z,0.00
2022-09-28T00:20:13.464Z,0.00
2022-09-28T00:21:13.464Z,0.00
2022-09-28T00:22:13.484Z,0.00
2022-09-28T00:23:13.470Z,0.00
2022-09-28T00:24:13.464Z,0.00
2022-09-28T00:25:13.482Z,0.00
2022-09-28T00:26:13.492Z,0.00
2022-09-28T00:27:13.510Z,0.00
2022-09-28T00:28:14.002Z,0.00
2022-09-28T00:29:13.481Z,0.00
2022-09-28T00:32:10.667Z,0.00
2022-09-28T00:33:10.630Z,0.00
2022-09-28T00:34:10.769Z,0.00
2022-09-28T00:35:10.622Z,0.00
2022-09-28T00:36:10.632Z,0.00
2022-09-28T00:37:10.702Z,0.00
2022-09-28T00:38:11.903Z,0.00
2022-09-28T00:39:14.886Z,0.00
2022-09-28T00:40:10.770Z,0.00
2022-09-28T00:41:16.897Z,0.00
2022-09-28T00:42:10.744Z,0.00
2022-09-28T00:43:10.618Z,0.00
2022-09-28T00:44:10.645Z,0.00
2022-09-28T00:45:10.700Z,0.00
2022-09-28T00:46:10.737Z,0.00
2022-09-28T00:47:10.609Z,0.00
2022-09-28T00:48:10.642Z,0.00
2022-09-28T00:49:10.698Z,0.00
2022-09-28T00:50:10.640Z,0.00
2022-09-28T00:51:10.615Z,0.00
2022-09-28T00:52:10.627Z,0.00
2022-09-28T00:53:10.615Z,0.00
2022-09-28T00:54:10.640Z,0.00
2022-09-28T00:55:10.591Z,0.00
2022-09-28T00:56:10.600Z,0.00
2022-09-28T00:57:10.595Z,0.00
2022-09-28T00:58:10.579Z,0.00
2022-09-28T00:59:10.588Z,0.00
2022-09-28T01:00:10.597Z,0.00
2022-09-28T01:04:40.859Z,0.00
2022-09-28T01:05:40.828Z,0.00
2022-09-28T01:06:40.844Z,0.00
2022-09-28T01:07:40.818Z,0.00
2022-09-28T01:08:40.840Z,0.00
2022-09-28T01:09:40.801Z,0.00
2022-09-28T01:10:40.847Z,0.00
2022-09-28T01:11:40.806Z,0.00
2022-09-28T01:12:40.797Z,0.00
2022-09-28T01:13:40.800Z,0.00
2022-09-28T01:14:40.790Z,0.00
2022-09-28T01:15:40.787Z,0.00
2022-09-28T01:16:40.869Z,0.00
2022-09-28T01:17:40.813Z,0.00
2022-09-28T01:18:40.805Z,0.00
2022-09-28T01:19:40.797Z,0.00
2022-09-28T01:20:40.804Z,0.00
2022-09-28T01:21:40.800Z,0.00
2022-09-28T01:22:40.824Z,0.00
2022-09-28T01:23:40.784Z,0.00
2022-09-28T01:24:40.829Z,0.00
2022-09-28T01:25:40.788Z,0.00
2022-09-28T01:26:40.777Z,0.00
2022-09-28T01:27:40.792Z,0.00
2022-09-28T01:28:40.788Z,0.00
2022-09-28T01:29:40.772Z,0.00
2022-09-28T01:30:40.804Z,0.00
2022-09-28T01:31:40.980Z,0.00
2022-09-28T01:32:40.780Z,0.00
2022-09-28T01:33:40.788Z,0.00
2022-09-28T01:34:40.763Z,0.00
2022-09-28T01:35:40.807Z,0.00
2022-09-28T01:36:40.771Z,0.00
2022-09-28T01:37:40.772Z,0.00
2022-09-28T01:38:40.749Z,0.00
2022-09-28T01:39:40.801Z,0.00
2022-09-28T01:40:40.849Z,0.00
2022-09-28T01:41:40.796Z,0.00
2022-09-28T01:42:40.756Z,0.00
2022-09-28T01:43:40.754Z,0.00
2022-09-28T01:44:40.752Z,0.00
2022-09-28T01:45:40.793Z,0.00
2022-09-28T01:46:40.786Z,0.00
2022-09-28T01:47:40.734Z,0.00
2022-09-28T01:48:40.750Z,0.00
2022-09-28T01:49:40.745Z,0.00
2022-09-28T01:50:40.731Z,0.00
2022-09-28T01:51:40.743Z,0.00
2022-09-28T01:52:40.749Z,0.00
2022-09-28T01:53:40.759Z,0.00
2022-09-28T01:54:40.731Z,0.00
2022-09-28T01:55:40.731Z,0.00
2022-09-28T01:56:40.718Z,0.00
2022-09-28T01:57:40.736Z,0.00
2022-09-28T01:58:40.733Z,0.00
2022-09-28T01:59:40.710Z,0.00
2022-09-28T02:00:40.772Z,0.00
2022-09-28T02:01:40.799Z,0.00
2022-09-28T02:05:10.430Z,0.00
2022-09-28T02:06:10.427Z,0.00
2022-09-28T02:07:10.415Z,0.00
2022-09-28T02:08:10.414Z,0.00
2022-09-28T02:09:10.457Z,0.00
2022-09-28T02:10:10.435Z,0.00
2022-09-28T02:11:10.419Z,0.00
2022-09-28T02:12:10.402Z,0.00
2022-09-28T02:13:10.384Z,0.00
2022-09-28T02:14:10.381Z,0.00
2022-09-28T02:15:10.390Z,0.00
2022-09-28T02:16:10.417Z,0.00
2022-09-28T02:17:10.417Z,0.00
2022-09-28T02:18:10.389Z,0.00
2022-09-28T02:19:10.389Z,0.00
2022-09-28T02:20:10.392Z,0.00
2022-09-28T02:21:10.387Z,0.00
2022-09-28T02:22:10.396Z,0.00
2022-09-28T02:23:10.365Z,0.00
2022-09-28T02:24:10.378Z,0.00
2022-09-28T02:25:10.359Z,0.00
2022-09-28T02:26:10.367Z,0.00
2022-09-28T02:27:10.372Z,0.00
2022-09-28T02:28:10.366Z,0.00
2022-09-28T02:29:10.400Z,0.00
2022-09-28T02:30:10.409Z,0.00
2022-09-28T02:31:10.413Z,0.00
2022-09-28T02:32:10.387Z,0.00
2022-09-28T02:33:10.402Z,0.00
2022-09-28T02:34:10.347Z,0.00
2022-09-28T02:35:10.350Z,0.00
2022-09-28T02:36:10.356Z,0.00
2022-09-28T02:37:10.351Z,0.00
2022-09-28T02:38:10.389Z,0.00
2022-09-28T02:39:10.365Z,0.00
2022-09-28T02:40:10.367Z,0.00
2022-09-28T02:41:10.387Z,0.00
2022-09-28T02:42:10.352Z,0.00
2022-09-28T02:43:10.406Z,0.00
2022-09-28T02:44:10.389Z,0.00
2022-09-28T02:45:10.350Z,0.00
2022-09-28T02:46:10.495Z,0.00
2022-09-28T02:47:10.340Z,0.00
2022-09-28T02:48:10.339Z,0.00
2022-09-28T02:50:57.223Z,0.00
2022-09-28T02:51:57.196Z,0.00
2022-09-28T02:52:57.171Z,0.00
2022-09-28T02:53:57.176Z,0.00
2022-09-28T02:54:57.162Z,0.00
2022-09-28T02:55:57.167Z,0.00
2022-09-28T02:56:57.150Z,0.00
2022-09-28T02:57:57.150Z,0.00
2022-09-28T02:58:57.172Z,0.00
2022-09-28T02:59:57.187Z,0.00
2022-09-28T03:00:57.185Z,0.00
2022-09-28T03:01:57.155Z,0.00
2022-09-28T03:02:57.247Z,0.00
2022-09-28T03:03:57.129Z,0.00
2022-09-28T03:04:57.135Z,0.00
2022-09-28T03:05:57.146Z,0.00
2022-09-28T03:06:57.132Z,0.00
2022-09-28T03:07:57.134Z,0.00
2022-09-28T03:08:57.155Z,0.00
2022-09-28T03:09:57.129Z,0.00
2022-09-28T03:10:57.135Z,0.00
2022-09-28T03:11:57.314Z,0.00
2022-09-28T03:12:57.130Z,0.00
2022-09-28T03:13:57.112Z,0.00
2022-09-28T03:14:57.123Z,0.00
2022-09-28T03:15:57.135Z,0.00
2022-09-28T03:16:57.123Z,0.00
2022-09-28T03:17:57.114Z,0.00
2022-09-28T03:18:57.116Z,0.00
2022-09-28T03:19:57.123Z,0.00
2022-09-28T03:20:57.110Z,0.00
2022-09-28T03:23:39.746Z,0.00
2022-09-28T03:24:39.667Z,0.00
2022-09-28T03:25:39.661Z,0.00
2022-09-28T03:26:39.733Z,0.00
2022-09-28T03:27:39.782Z,0.00
2022-09-28T03:28:39.710Z,0.00
2022-09-28T03:29:39.683Z,0.00
2022-09-28T03:30:39.673Z,0.00
2022-09-28T03:31:39.771Z,0.00
2022-09-28T03:32:39.677Z,0.00
2022-09-28T03:33:39.707Z,0.00
2022-09-28T03:34:39.718Z,0.00
2022-09-28T03:35:39.729Z,0.00
2022-09-28T03:36:39.654Z,0.00
2022-09-28T03:37:39.680Z,0.00
2022-09-28T03:38:39.662Z,0.00
2022-09-28T03:39:39.651Z,0.00
2022-09-28T03:40:39.710Z,0.00
2022-09-28T03:41:39.697Z,0.00
2022-09-28T03:42:39.651Z,0.00
2022-09-28T03:43:39.664Z,0.00
2022-09-28T03:44:39.640Z,0.00
2022-09-28T03:45:39.701Z,0.00
2022-09-28T03:46:39.699Z,0.00
2022-09-28T03:47:39.621Z,0.00
2022-09-28T03:48:39.619Z,0.00
2022-09-28T03:49:39.640Z,0.00
2022-09-28T03:50:39.630Z,0.00
2022-09-28T03:51:39.626Z,0.00
2022-09-28T03:52:39.630Z,0.00
2022-09-28T03:53:39.672Z,0.00
2022-09-28T03:54:39.635Z,0.00
2022-09-28T03:55:39.627Z,0.00
2022-09-28T03:56:39.649Z,0.00
2022-09-28T03:57:39.602Z,0.00
2022-09-28T03:58:39.615Z,0.00
2022-09-28T03:59:39.612Z,0.00
2022-09-28T04:00:39.657Z,0.00
2022-09-28T04:01:39.720Z,0.00
2022-09-28T04:02:39.608Z,0.00
2022-09-28T04:03:39.599Z,0.00
2022-09-28T04:04:39.602Z,0.00
2022-09-28T04:05:39.618Z,0.00
2022-09-28T04:06:39.584Z,0.00
2022-09-28T04:07:39.601Z,0.00
2022-09-28T04:08:39.614Z,0.00
2022-09-28T04:09:39.581Z,0.00
2022-09-28T04:10:39.625Z,0.00
2022-09-28T04:12:02.296Z,0.00
2022-09-28T04:12:39.592Z,0.00
2022-09-28T04:13:39.640Z,0.00
2022-09-28T04:14:39.595Z,0.00
2022-09-28T04:15:39.657Z,0.00
2022-09-28T04:16:39.666Z,0.00
2022-09-28T04:17:40.315Z,0.00
2022-09-28T04:18:39.612Z,0.00
2022-09-28T04:19:39.611Z,0.00
2022-09-28T04:20:39.574Z,0.00
2022-09-28T04:21:39.593Z,0.00
2022-09-28T04:22:39.560Z,0.00
2022-09-28T04:23:39.573Z,0.00
2022-09-28T04:24:39.560Z,0.00
2022-09-28T04:25:39.575Z,0.00
2022-09-28T04:26:39.565Z,0.00
2022-09-28T04:27:39.577Z,0.00
2022-09-28T04:28:39.582Z,0.00
2022-09-28T04:29:39.544Z,0.00
2022-09-28T04:30:39.582Z,0.00
2022-09-28T04:31:39.625Z,0.00
2022-09-28T04:32:39.571Z,0.00
2022-09-28T04:33:39.571Z,0.00
2022-09-28T04:34:43.725Z,0.00
2022-09-28T04:35:39.561Z,0.00
2022-09-28T04:36:39.558Z,0.00
2022-09-28T04:37:39.550Z,0.00
2022-09-28T04:38:52.953Z,0.00
2022-09-28T04:39:39.574Z,0.00
2022-09-28T04:40:39.598Z,0.00
2022-09-28T04:41:39.573Z,0.00
2022-09-28T04:42:39.553Z,0.00
2022-09-28T04:43:39.521Z,0.00
2022-09-28T04:44:39.582Z,0.00
2022-09-28T04:45:39.610Z,0.00
2022-09-28T04:46:39.525Z,4.00
2022-09-28T04:47:51.331Z,4.00
2022-09-28T04:48:39.634Z,4.00
2022-09-28T04:49:39.537Z,4.00
2022-09-28T04:50:39.519Z,0.00
2022-09-28T04:51:39.507Z,0.00
2022-09-28T04:52:39.578Z,4.00
2022-09-28T04:53:41.742Z,4.00
2022-09-28T04:54:39.538Z,4.00
2022-09-28T04:55:39.523Z,4.00
2022-09-28T04:56:39.557Z,4.00
2022-09-28T04:57:39.513Z,4.00
2022-09-28T04:58:39.490Z,4.00
2022-09-28T04:59:39.495Z,4.00
2022-09-28T05:00:39.516Z,4.00
2022-09-28T05:01:39.576Z,4.00
2022-09-28T05:02:39.599Z,4.00
2022-09-28T05:03:39.482Z,4.00
2022-09-28T05:04:39.487Z,4.00
2022-09-28T05:05:39.485Z,4.00
2022-09-28T05:06:39.512Z,4.00
2022-09-28T05:07:39.489Z,4.00
2022-09-28T05:08:39.505Z,12.00
2022-09-28T05:09:39.481Z,8.00
2022-09-28T05:10:39.464Z,12.00
2022-09-28T05:11:39.473Z,12.00
2022-09-28T05:12:39.482Z,16.00
2022-09-28T05:13:39.470Z,12.00
2022-09-28T05:14:39.464Z,20.00
2022-09-28T05:15:39.458Z,20.00
2022-09-28T05:16:39.562Z,24.00
2022-09-28T05:17:39.467Z,28.00
2022-09-28T05:18:39.456Z,24.00
2022-09-28T05:19:39.457Z,28.00
2022-09-28T05:20:39.457Z,28.00
2022-09-28T05:21:39.464Z,24.00
2022-09-28T05:22:39.473Z,24.00
2022-09-28T05:23:39.452Z,24.00
2022-09-28T05:24:39.455Z,24.00
2022-09-28T05:25:39.437Z,28.00
2022-09-28T05:26:39.468Z,32.00
2022-09-28T05:27:39.442Z,32.00
2022-09-28T05:28:39.429Z,36.00
2022-09-28T05:29:39.436Z,40.00
2022-09-28T05:30:39.435Z,44.00
2022-09-28T05:31:39.471Z,48.00
2022-09-28T05:32:39.432Z,60.00
2022-09-28T05:33:39.466Z,68.00
2022-09-28T05:34:39.429Z,68.00
2022-09-28T05:35:39.428Z,80.00
2022-09-28T05:36:39.432Z,88.00
2022-09-28T05:37:39.451Z,104.00
2022-09-28T05:38:39.420Z,104.00
2022-09-28T05:39:39.426Z,112.00
2022-09-28T05:40:39.463Z,112.00
2022-09-28T05:41:39.414Z,124.00
2022-09-28T05:42:39.424Z,136.00
2022-09-28T05:43:39.416Z,136.00
2022-09-28T05:44:39.419Z,136.00
2022-09-28T05:45:39.501Z,136.00
2022-09-28T05:46:39.407Z,136.00
2022-09-28T05:47:39.416Z,144.00
2022-09-28T05:48:39.410Z,164.00
2022-09-28T05:49:39.398Z,184.00
2022-09-28T05:50:39.394Z,192.00
2022-09-28T05:51:39.397Z,200.00
2022-09-28T05:52:39.379Z,200.00
2022-09-28T05:53:39.386Z,208.00
2022-09-28T05:54:39.380Z,228.00
2022-09-28T05:55:39.398Z,264.00
2022-09-28T05:56:39.400Z,280.00
2022-09-28T05:57:39.378Z,344.00
2022-09-28T05:58:39.378Z,460.00
2022-09-28T05:59:39.412Z,588.00
2022-09-28T06:00:39.365Z,776.00
2022-09-28T06:01:39.477Z,576.00
2022-09-28T06:02:39.501Z,732.00
2022-09-28T06:03:39.391Z,888.00
2022-09-28T06:04:39.371Z,904.00
2022-09-28T06:05:39.530Z,756.00
2022-09-28T06:06:39.370Z,892.00
2022-09-28T06:07:39.354Z,1192.00
2022-09-28T06:08:39.365Z,1236.00
2022-09-28T06:09:39.357Z,1292.00
2022-09-28T06:10:39.359Z,1352.00
2022-09-28T06:11:39.409Z,1444.00
2022-09-28T06:12:39.343Z,1552.00
2022-09-28T06:13:39.353Z,1656.00
2022-09-28T06:14:39.352Z,1740.00
2022-09-28T06:15:39.345Z,1796.00
2022-09-28T06:16:43.596Z,1868.00
2022-09-28T06:17:39.354Z,1916.00
2022-09-28T06:18:39.370Z,1976.00
2022-09-28T06:19:39.345Z,1996.00
2022-09-28T06:20:39.349Z,2040.00
2022-09-28T06:21:39.339Z,2040.00
2022-09-28T06:22:39.348Z,2088.00
2022-09-28T06:23:40.589Z,2120.00
2022-09-28T06:24:39.355Z,2196.00
2022-09-28T06:25:39.320Z,2252.00
2022-09-28T06:26:39.329Z,2280.00
2022-09-28T06:27:39.340Z,2320.00
2022-09-28T06:28:39.324Z,2412.00
2022-09-28T06:29:39.346Z,2412.00
2022-09-28T06:30:39.373Z,2452.00
2022-09-28T06:31:39.329Z,2440.00
2022-09-28T06:32:39.318Z,2448.00
2022-09-28T06:33:39.325Z,2468.00
2022-09-28T06:34:39.326Z,2408.00
2022-09-28T06:35:39.325Z,2288.00
2022-09-28T06:36:39.314Z,2156.00
2022-09-28T06:37:39.304Z,1960.00
2022-09-28T06:38:39.300Z,1848.00
2022-09-28T06:39:39.318Z,1588.00
2022-09-28T06:40:39.333Z,1384.00
2022-09-28T06:41:39.320Z,1280.00
2022-09-28T06:42:39.295Z,1076.00
2022-09-28T06:43:39.315Z,888.00
2022-09-28T06:44:39.291Z,764.00
2022-09-28T06:45:39.302Z,728.00
2022-09-28T06:46:39.372Z,688.00
2022-09-28T06:47:39.312Z,680.00
2022-09-28T06:48:39.324Z,704.00
2022-09-28T06:49:39.299Z,732.00
2022-09-28T06:50:48.452Z,776.00
2022-09-28T06:51:48.650Z,836.00
2022-09-28T06:52:49.714Z,932.00
2022-09-28T06:53:48.424Z,1080.00
2022-09-28T06:54:48.843Z,1208.00
2022-09-28T06:55:47.508Z,1380.00
2022-09-28T06:56:50.398Z,1576.00
2022-09-28T06:57:50.879Z,1684.00
2022-09-28T06:58:50.214Z,1788.00
2022-09-28T06:59:48.572Z,1984.00
2022-09-28T07:00:51.895Z,2176.00
2022-09-28T07:01:50.851Z,2436.00
2022-09-28T07:02:50.216Z,2816.00
2022-09-28T07:03:39.734Z,3208.00
2022-09-28T07:04:50.303Z,3404.00
2022-09-28T07:05:50.109Z,3512.00
2022-09-28T07:06:49.494Z,3640.00
2022-09-28T07:07:50.114Z,3672.00
2022-09-28T07:08:55.544Z,3820.00
2022-09-28T07:09:43.742Z,3788.00
2022-09-28T07:10:49.134Z,3820.00
2022-09-28T07:11:48.746Z,3860.00
2022-09-28T07:12:48.822Z,3800.00
2022-09-28T07:13:50.911Z,3912.00
2022-09-28T07:14:48.283Z,3828.00
2022-09-28T07:15:47.506Z,3936.00
2022-09-28T07:17:11.728Z,3864.00
2022-09-28T07:17:54.189Z,3904.00
2022-09-28T07:18:39.254Z,3856.00
2022-09-28T07:19:39.247Z,3764.00
2022-09-28T07:20:51.602Z,3744.00
2022-09-28T07:21:39.241Z,3580.00
2022-09-28T07:22:43.284Z,3436.00
2022-09-28T07:23:51.869Z,3276.00
2022-09-28T07:24:39.232Z,3288.00
2022-09-28T07:25:39.232Z,3132.00
2022-09-28T07:26:39.251Z,2968.00
2022-09-28T07:27:39.228Z,2896.00
2022-09-28T07:28:39.225Z,2896.00
2022-09-28T07:29:39.240Z,2796.00
2022-09-28T07:30:39.240Z,2924.00
2022-09-28T07:31:39.251Z,3324.00
2022-09-28T07:32:39.232Z,3316.00
2022-09-28T07:33:39.240Z,3460.00
2022-09-28T07:34:39.236Z,3352.00
2022-09-28T07:35:39.243Z,3268.00
2022-09-28T07:36:39.251Z,3104.00
2022-09-28T07:37:39.227Z,3324.00
2022-09-28T07:38:39.226Z,3532.00
2022-09-28T07:39:39.320Z,3644.00
2022-09-28T07:40:39.245Z,2620.00
2022-09-28T07:41:39.256Z,3080.00
2022-09-28T07:42:39.248Z,2736.00
2022-09-28T07:43:39.248Z,2440.00
2022-09-28T07:44:39.237Z,2820.00
2022-09-28T07:45:39.278Z,2812.00
2022-09-28T07:46:39.244Z,2880.00
2022-09-28T07:47:39.245Z,2944.00
2022-09-28T07:48:39.254Z,2980.00
2022-09-28T07:49:39.228Z,2380.00
2022-09-28T07:50:39.238Z,1964.00
2022-09-28T07:51:39.233Z,2488.00
2022-09-28T07:52:39.240Z,1596.00
2022-09-28T07:53:39.230Z,1744.00
2022-09-28T07:54:39.238Z,1696.00
2022-09-28T07:55:39.232Z,2328.00
2022-09-28T07:56:39.252Z,3292.00
2022-09-28T07:57:39.233Z,2176.00
2022-09-28T07:58:39.232Z,1600.00
2022-09-28T07:59:39.233Z,2108.00
2022-09-28T08:00:39.239Z,2044.00
2022-09-28T08:01:39.305Z,2908.00
2022-09-28T08:02:39.349Z,1760.00
2022-09-28T08:03:39.251Z,1952.00
2022-09-28T08:04:39.231Z,3536.00
2022-09-28T08:05:39.241Z,3856.00
2022-09-28T08:06:39.234Z,3728.00
2022-09-28T08:07:39.226Z,3496.00
2022-09-28T08:08:39.225Z,3028.00
2022-09-28T08:09:39.243Z,2848.00
2022-09-28T08:10:41.596Z,2428.00
2022-09-28T08:11:39.226Z,1884.00
2022-09-28T08:12:39.222Z,2512.00
2022-09-28T08:13:39.240Z,1440.00
2022-09-28T08:14:39.243Z,1756.00
2022-09-28T08:15:39.239Z,1804.00
2022-09-28T08:16:39.219Z,1584.00
2022-09-28T08:17:39.218Z,1500.00
2022-09-28T08:18:39.234Z,1412.00
2022-09-28T08:19:39.228Z,1272.00
2022-09-28T08:20:39.246Z,1264.00
2022-09-28T08:21:39.226Z,1432.00
2022-09-28T08:22:39.228Z,1492.00
2022-09-28T08:23:39.228Z,1552.00
2022-09-28T08:24:39.255Z,1308.00
2022-09-28T08:25:39.229Z,1440.00
2022-09-28T08:26:39.277Z,2084.00
2022-09-28T08:27:39.217Z,2504.00
2022-09-28T08:28:39.218Z,2900.00
2022-09-28T08:29:39.233Z,2600.00
2022-09-28T08:30:39.255Z,1956.00
2022-09-28T08:31:39.243Z,2684.00
2022-09-28T08:32:39.250Z,1736.00
2022-09-28T08:33:39.226Z,2356.00
2022-09-28T08:34:39.266Z,3188.00
2022-09-28T08:35:39.237Z,2976.00
2022-09-28T08:36:39.310Z,2828.00
2022-09-28T08:37:39.256Z,2732.00
2022-09-28T08:38:39.232Z,2900.00
2022-09-28T08:39:39.236Z,2096.00
2022-09-28T08:40:39.289Z,2256.00
2022-09-28T08:41:39.226Z,2844.00
2022-09-28T08:42:39.245Z,2468.00
2022-09-28T08:43:39.223Z,2028.00
2022-09-28T08:44:39.278Z,1696.00
2022-09-28T08:45:39.270Z,1688.00
2022-09-28T08:46:39.266Z,1680.00
2022-09-28T08:47:39.236Z,2268.00
2022-09-28T08:48:39.254Z,4232.00
2022-09-28T08:49:39.253Z,3972.00
2022-09-28T08:50:39.239Z,4412.00
2022-09-28T08:51:39.229Z,4352.00
2022-09-28T08:52:39.240Z,4008.00
2022-09-28T08:53:39.227Z,3776.00
2022-09-28T08:54:39.221Z,3352.00
2022-09-28T08:55:39.235Z,2884.00
2022-09-28T08:56:39.224Z,2536.00
2022-09-28T08:57:39.219Z,2592.00
2022-09-28T08:58:39.220Z,2292.00
2022-09-28T08:59:39.223Z,2344.00
2022-09-28T09:00:39.243Z,2384.00
2022-09-28T09:01:39.260Z,2012.00
2022-09-28T09:02:39.289Z,2080.00
2022-09-28T09:03:39.240Z,2368.00
2022-09-28T09:04:39.228Z,3500.00
2022-09-28T09:05:39.211Z,3792.00
2022-09-28T09:06:39.245Z,4900.00
2022-09-28T09:07:39.223Z,5704.00
2022-09-28T09:08:39.227Z,8776.00
2022-09-28T09:09:39.224Z,9288.00
2022-09-28T09:10:39.218Z,8396.00
2022-09-28T09:11:39.212Z,8600.00
2022-09-28T09:12:39.230Z,8404.00
2022-09-28T09:13:39.229Z,6796.00
2022-09-28T09:14:39.256Z,8240.00
2022-09-28T09:15:39.224Z,9068.00
2022-09-28T09:16:39.280Z,8844.00
2022-09-28T09:17:39.219Z,8708.00
2022-09-28T09:18:39.238Z,9388.00
2022-09-28T09:19:39.235Z,10556.00
2022-09-28T09:20:39.242Z,11536.00
2022-09-28T09:21:39.254Z,13936.00
2022-09-28T09:22:39.231Z,16096.00
2022-09-28T09:23:39.259Z,17600.00
2022-09-28T09:24:39.258Z,18464.00
2022-09-28T09:25:39.245Z,19232.00
2022-09-28T09:26:39.293Z,18784.00
2022-09-28T09:27:39.256Z,16544.00
2022-09-28T09:28:39.248Z,14088.00
2022-09-28T09:29:39.262Z,11724.00
2022-09-28T09:30:39.292Z,9828.00
2022-09-28T09:31:39.256Z,8424.00
2022-09-28T09:32:39.267Z,7008.00
2022-09-28T09:33:39.299Z,5512.00
2022-09-28T09:34:39.263Z,4368.00
2022-09-28T09:35:39.293Z,3964.00
2022-09-28T09:36:39.276Z,3448.00
2022-09-28T09:37:39.286Z,3080.00
2022-09-28T09:38:39.300Z,3200.00
2022-09-28T09:39:39.306Z,3040.00
2022-09-28T09:40:39.306Z,2968.00
2022-09-28T09:41:39.295Z,3072.00
2022-09-28T09:42:39.298Z,3180.00
2022-09-28T09:43:39.303Z,3800.00
2022-09-28T09:44:39.315Z,3992.00
2022-09-28T09:45:39.345Z,4316.00
2022-09-28T09:46:39.322Z,5268.00
2022-09-28T09:47:39.318Z,5936.00
2022-09-28T09:48:39.442Z,5876.00
2022-09-28T09:49:40.030Z,6076.00
2022-09-28T09:50:39.323Z,6476.00
2022-09-28T09:51:39.352Z,6440.00
2022-09-28T09:52:42.288Z,6600.00
2022-09-28T09:53:39.325Z,7436.00
2022-09-28T09:54:39.379Z,6744.00
2022-09-28T09:55:39.335Z,7060.00
2022-09-28T09:56:39.329Z,5768.00
2022-09-28T09:57:39.363Z,4960.00
2022-09-28T09:58:39.393Z,6708.00
2022-09-28T09:59:39.659Z,5812.00
2022-09-28T10:00:39.352Z,4460.00
2022-09-28T10:01:39.378Z,4340.00
2022-09-28T10:02:39.431Z,5036.00
2022-09-28T10:03:39.341Z,4496.00
2022-09-28T10:04:39.358Z,4308.00
2022-09-28T10:05:39.361Z,3212.00
2022-09-28T10:06:39.366Z,4020.00
2022-09-28T10:07:43.105Z,3476.00
2022-09-28T10:08:39.384Z,3700.00
2022-09-28T10:09:39.376Z,3336.00
2022-09-28T10:10:39.355Z,3196.00
2022-09-28T10:11:39.365Z,3024.00
2022-09-28T10:12:39.360Z,2876.00
2022-09-28T10:13:40.042Z,2376.00
2022-09-28T10:14:39.408Z,2060.00
2022-09-28T10:15:39.373Z,1984.00
2022-09-28T10:16:39.462Z,2008.00
2022-09-28T10:17:39.388Z,2524.00
2022-09-28T10:18:39.407Z,2148.00
2022-09-28T10:19:39.387Z,2392.00
2022-09-28T10:20:39.387Z,2752.00
2022-09-28T10:21:39.397Z,3408.00
2022-09-28T10:22:39.398Z,2980.00
2022-09-28T10:23:39.405Z,5980.00
2022-09-28T10:24:39.404Z,6548.00
2022-09-28T10:25:39.413Z,5440.00
2022-09-28T10:26:39.393Z,5292.00
2022-09-28T10:27:39.396Z,2280.00
2022-09-28T10:28:39.406Z,4248.00
2022-09-28T10:29:39.417Z,2808.00
2022-09-28T10:30:39.437Z,1944.00
2022-09-28T10:31:39.386Z,1400.00
2022-09-28T10:32:39.408Z,1240.00
2022-09-28T10:33:39.396Z,1240.00
2022-09-28T10:34:39.419Z,1100.00
2022-09-28T10:35:39.386Z,808.00
2022-09-28T10:36:39.402Z,676.00
2022-09-28T10:37:39.393Z,416.00
2022-09-28T10:38:39.408Z,408.00
2022-09-28T10:39:39.405Z,472.00
2022-09-28T10:40:39.530Z,436.00
2022-09-28T10:41:39.423Z,376.00
2022-09-28T10:42:39.402Z,404.00
2022-09-28T10:43:39.408Z,504.00
2022-09-28T10:44:39.411Z,576.00
2022-09-28T10:45:39.458Z,696.00
2022-09-28T10:46:39.409Z,668.00
2022-09-28T10:47:39.412Z,680.00
2022-09-28T10:52:22.426Z,676.00
2022-09-28T10:53:22.330Z,620.00
2022-09-28T10:54:22.317Z,592.00
2022-09-28T10:55:22.312Z,636.00
2022-09-28T10:56:22.428Z,708.00
2022-09-28T10:57:22.332Z,736.00
2022-09-28T10:58:22.325Z,720.00
2022-09-28T10:59:22.316Z,696.00
2022-09-28T11:00:22.302Z,636.00
2022-09-28T11:01:22.407Z,604.00
2022-09-28T11:02:22.353Z,600.00
2022-09-28T11:03:22.331Z,608.00
2022-09-28T11:04:22.317Z,632.00
2022-09-28T11:05:22.308Z,604.00
2022-09-28T11:06:22.316Z,544.00
2022-09-28T11:07:22.307Z,464.00
2022-09-28T11:08:22.407Z,428.00
2022-09-28T11:09:22.346Z,420.00
2022-09-28T11:10:22.316Z,424.00
2022-09-28T11:11:22.313Z,428.00
2022-09-28T11:12:22.328Z,456.00
2022-09-28T11:13:22.308Z,472.00
2022-09-28T11:14:22.334Z,500.00
2022-09-28T11:15:22.326Z,512.00
2022-09-28T11:16:22.378Z,528.00
2022-09-28T11:17:22.324Z,548.00
2022-09-28T11:18:22.316Z,568.00
2022-09-28T11:19:22.319Z,588.00
2022-09-28T11:20:27.052Z,612.00
2022-09-28T11:21:22.347Z,632.00
2022-09-28T11:22:22.320Z,648.00
2022-09-28T11:23:22.320Z,664.00
2022-09-28T11:24:22.715Z,676.00
2022-09-28T11:25:22.298Z,680.00
2022-09-28T11:26:22.321Z,688.00
2022-09-28T11:27:22.302Z,688.00
2022-09-28T11:28:22.291Z,688.00
2022-09-28T11:29:22.320Z,692.00
2022-09-28T11:30:22.349Z,688.00
2022-09-28T11:31:22.315Z,684.00
2022-09-28T11:32:22.320Z,684.00
2022-09-28T11:33:22.315Z,688.00
2022-09-28T11:34:31.143Z,684.00
2022-09-28T11:35:22.297Z,680.00
2022-09-28T11:36:22.326Z,672.00
2022-09-28T11:37:22.354Z,660.00
2022-09-28T11:38:22.296Z,648.00
2022-09-28T11:39:22.300Z,636.00
2022-09-28T11:40:22.373Z,624.00
2022-09-28T11:41:22.294Z,608.00
2022-09-28T11:42:22.342Z,600.00
2022-09-28T11:43:22.347Z,592.00
2022-09-28T11:44:22.313Z,588.00
2022-09-28T11:45:22.329Z,580.00
2022-09-28T11:46:22.376Z,580.00
2022-09-28T11:47:22.323Z,580.00
2022-09-28T11:48:22.335Z,584.00
2022-09-28T11:49:22.300Z,588.00
2022-09-28T11:50:24.420Z,592.00
2022-09-28T11:51:22.311Z,596.00
2022-09-28T11:52:22.275Z,604.00
2022-09-28T11:53:22.301Z,580.00
2022-09-28T11:54:22.285Z,612.00
2022-09-28T11:55:22.289Z,616.00
2022-09-28T11:56:22.276Z,612.00
2022-09-28T11:57:22.303Z,628.00
2022-09-28T11:58:22.303Z,624.00
2022-09-28T11:59:22.294Z,628.00
2022-09-28T12:00:22.337Z,620.00
2022-09-28T12:01:22.290Z,616.00
2022-09-28T12:02:22.403Z,612.00
2022-09-28T12:03:22.495Z,608.00
2022-09-28T12:04:22.307Z,604.00
2022-09-28T12:05:22.298Z,600.00
2022-09-28T12:06:22.280Z,596.00
2022-09-28T12:07:23.368Z,596.00
2022-09-28T12:08:22.302Z,592.00
2022-09-28T12:09:22.264Z,592.00
2022-09-28T12:10:22.288Z,596.00
2022-09-28T12:11:22.297Z,596.00
2022-09-28T12:12:22.297Z,596.00
2022-09-28T12:13:22.288Z,596.00
2022-09-28T12:14:22.306Z,596.00
2022-09-28T12:15:22.308Z,600.00
2022-09-28T12:17:22.320Z,608.00
2022-09-28T12:18:22.263Z,616.00
2022-09-28T12:19:22.308Z,616.00
2022-09-28T12:20:22.320Z,624.00
2022-09-28T12:21:22.285Z,636.00
2022-09-28T12:22:22.291Z,640.00
2022-09-28T12:23:22.270Z,648.00
2022-09-28T12:24:22.272Z,660.00
2022-09-28T12:25:22.267Z,668.00
2022-09-28T12:26:22.308Z,676.00
2022-09-28T12:27:22.308Z,684.00
2022-09-28T12:28:22.373Z,692.00
2022-09-28T12:29:22.266Z,692.00
2022-09-28T12:30:22.263Z,704.00
2022-09-28T12:31:22.379Z,704.00
2022-09-28T12:32:22.266Z,704.00
2022-09-28T12:33:22.264Z,704.00
2022-09-28T12:34:22.275Z,700.00
2022-09-28T12:35:22.291Z,696.00
2022-09-28T12:36:22.264Z,684.00
2022-09-28T12:37:22.278Z,680.00
2022-09-28T12:38:22.290Z,672.00
2022-09-28T12:39:35.746Z,660.00
2022-09-28T12:40:22.304Z,656.00
2022-09-28T12:41:22.817Z,644.00
2022-09-28T12:42:22.288Z,632.00
2022-09-28T12:43:22.332Z,624.00
2022-09-28T12:44:22.820Z,616.00
2022-09-28T12:45:38.630Z,612.00
2022-09-28T12:48:02.602Z,592.00
2022-09-28T12:49:56.287Z,584.00
2022-09-28T12:51:02.872Z,572.00
2022-09-28T12:52:02.569Z,568.00
2022-09-28T12:53:03.261Z,560.00
2022-09-28T12:54:02.586Z,556.00
2022-09-28T12:55:02.614Z,552.00
2022-09-28T12:56:02.581Z,552.00
2022-09-28T12:57:02.569Z,552.00
2022-09-28T12:58:02.565Z,556.00